sensor_id;sensor_type;location;lat;lon;timestamp;pressure;altitude;pressure_sealevel;temperature;humidity
57610;BME280;43435;46.186;9.024;2023-07-28T08:32:42;98441.94;;;22.17;55.42
57610;BME280;43435;46.186;9.024;2023-07-28T08:35:08;98439.19;;;22.23;56.15
57610;BME280;43435;46.186;9.024;2023-07-28T08:37:33;98445.06;;;22.35;57.38
57610;BME280;43435;46.186;9.024;2023-07-28T08:39:59;98441.47;;;22.45;55.26
57610;BME280;43435;46.186;9.024;2023-07-28T08:42:24;98441.25;;;22.41;55.53
57610;BME280;43435;46.186;9.024;2023-07-28T08:44:50;98444.16;;;22.50;55.80
57610;BME280;43435;46.186;9.024;2023-07-28T08:47:17;98438.09;;;22.63;55.11
57610;BME280;43435;46.186;9.024;2023-07-28T08:49:43;98436.63;;;22.76;54.21
57610;BME280;43435;46.186;9.024;2023-07-28T08:52:08;98440.06;;;22.86;54.16
57610;BME280;43435;46.186;9.024;2023-07-28T08:54:33;98439.56;;;22.84;55.47
57610;BME280;43435;46.186;9.024;2023-07-28T08:56:59;98433.25;;;22.94;54.00
57610;BME280;43435;46.186;9.024;2023-07-28T08:59:27;98431.56;;;23.27;51.24
57610;BME280;43435;46.186;9.024;2023-07-28T09:01:53;98428.72;;;23.37;51.87
57610;BME280;43435;46.186;9.024;2023-07-28T09:04:20;98425.47;;;23.35;50.92
57610;BME280;43435;46.186;9.024;2023-07-28T09:06:46;98418.59;;;23.43;51.50
57610;BME280;43435;46.186;9.024;2023-07-28T09:09:13;98417.69;;;23.53;50.31
57610;BME280;43435;46.186;9.024;2023-07-28T09:11:52;98410.81;;;23.55;50.54
57610;BME280;43435;46.186;9.024;2023-07-28T09:14:19;98410.59;;;23.76;48.87
57610;BME280;43435;46.186;9.024;2023-07-28T09:16:45;98408.38;;;23.78;48.52
57610;BME280;43435;46.186;9.024;2023-07-28T09:19:11;98400.97;;;23.83;49.04
57610;BME280;43435;46.186;9.024;2023-07-28T09:21:38;98397.75;;;24.00;47.91
57610;BME280;43435;46.186;9.024;2023-07-28T09:24:04;98396.66;;;24.01;48.50
57610;BME280;43435;46.186;9.024;2023-07-28T09:26:46;98396.34;;;24.03;48.69
57610;BME280;43435;46.186;9.024;2023-07-28T09:29:19;98392.25;;;24.05;48.52
57610;BME280;43435;46.186;9.024;2023-07-28T09:31:47;98380.31;;;24.01;49.19
57610;BME280;43435;46.186;9.024;2023-07-28T09:34:23;98387.59;;;24.06;48.58
57610;BME280;43435;46.186;9.024;2023-07-28T09:36:49;98386.13;;;24.14;49.34
57610;BME280;43435;46.186;9.024;2023-07-28T09:39:14;98385.97;;;24.24;48.24
57610;BME280;43435;46.186;9.024;2023-07-28T09:41:39;98380.16;;;24.30;48.32
57610;BME280;43435;46.186;9.024;2023-07-28T09:44:05;98383.31;;;24.38;48.50
57610;BME280;43435;46.186;9.024;2023-07-28T09:46:33;98377.50;;;24.44;48.04
57610;BME280;43435;46.186;9.024;2023-07-28T09:49:04;98373.69;;;24.45;47.43
57610;BME280;43435;46.186;9.024;2023-07-28T09:51:30;98378.66;;;24.38;49.17
57610;BME280;43435;46.186;9.024;2023-07-28T09:54:22;98375.06;;;24.43;49.37
57610;BME280;43435;46.186;9.024;2023-07-28T09:56:57;98368.13;;;24.50;49.51
57610;BME280;43435;46.186;9.024;2023-07-28T09:59:37;98372.53;;;24.65;48.65
57610;BME280;43435;46.186;9.024;2023-07-28T10:02:04;98366.84;;;24.62;49.48
57610;BME280;43435;46.186;9.024;2023-07-28T10:04:31;98366.69;;;24.72;48.85
57610;BME280;43435;46.186;9.024;2023-07-28T10:06:56;98371.13;;;24.81;48.86
57610;BME280;43435;46.186;9.024;2023-07-28T10:09:26;98365.47;;;24.78;49.30
57610;BME280;43435;46.186;9.024;2023-07-28T10:11:53;98358.81;;;24.84;48.89
57610;BME280;43435;46.186;9.024;2023-07-28T10:14:35;98356.13;;;24.98;48.77
57610;BME280;43435;46.186;9.024;2023-07-28T10:17:03;98345.09;;;25.03;50.13
57610;BME280;43435;46.186;9.024;2023-07-28T10:19:33;98344.81;;;25.04;48.75
57610;BME280;43435;46.186;9.024;2023-07-28T10:22:00;98349.00;;;25.16;48.98
57610;BME280;43435;46.186;9.024;2023-07-28T10:24:55;98345.84;;;25.36;47.19
57610;BME280;43435;46.186;9.024;2023-07-28T10:27:38;98345.63;;;25.46;48.25
57610;BME280;43435;46.186;9.024;2023-07-28T10:30:09;98345.53;;;25.51;47.19
57610;BME280;43435;46.186;9.024;2023-07-28T10:32:39;98349.78;;;25.58;47.63
57610;BME280;43435;46.186;9.024;2023-07-28T10:37:43;98345.09;;;25.72;48.68
57610;BME280;43435;46.186;9.024;2023-07-28T10:42:54;98351.19;;;25.83;49.51
57610;BME280;43435;46.186;9.024;2023-07-28T10:45:21;98346.91;;;25.90;49.01
57610;BME280;43435;46.186;9.024;2023-07-28T10:47:47;98352.97;;;25.87;50.08
57610;BME280;43435;46.186;9.024;2023-07-28T10:50:13;98344.56;;;25.97;48.30
57610;BME280;43435;46.186;9.024;2023-07-28T10:52:42;98348.13;;;25.84;49.08
57610;BME280;43435;46.186;9.024;2023-07-28T10:55:24;98340.06;;;25.65;50.36
57610;BME280;43435;46.186;9.024;2023-07-28T10:57:51;98339.63;;;25.72;49.37
57610;BME280;43435;46.186;9.024;2023-07-28T11:00:20;98347.94;;;25.67;49.81
57610;BME280;43435;46.186;9.024;2023-07-28T11:05:18;98349.94;;;25.75;49.29
57610;BME280;43435;46.186;9.024;2023-07-28T11:07:44;98354.09;;;25.86;48.56
57610;BME280;43435;46.186;9.024;2023-07-28T11:10:10;98359.16;;;25.93;48.87
57610;BME280;43435;46.186;9.024;2023-07-28T11:12:42;98359.38;;;26.19;47.08
57610;BME280;43435;46.186;9.024;2023-07-28T11:15:09;98353.03;;;26.55;44.80
57610;BME280;43435;46.186;9.024;2023-07-28T11:17:46;98348.44;;;26.64;45.07
57610;BME280;43435;46.186;9.024;2023-07-28T11:20:25;98349.16;;;26.78;44.14
57610;BME280;43435;46.186;9.024;2023-07-28T11:23:04;98346.16;;;26.88;42.31
57610;BME280;43435;46.186;9.024;2023-07-28T11:25:31;98342.94;;;26.86;42.30
57610;BME280;43435;46.186;9.024;2023-07-28T11:27:57;98340.03;;;26.91;43.24
57610;BME280;43435;46.186;9.024;2023-07-28T11:30:23;98328.34;;;27.00;45.33
57610;BME280;43435;46.186;9.024;2023-07-28T11:32:52;98326.72;;;26.98;46.31
57610;BME280;43435;46.186;9.024;2023-07-28T11:35:20;98331.03;;;27.22;42.73
57610;BME280;43435;46.186;9.024;2023-07-28T11:37:47;98313.03;;;27.30;42.36
57610;BME280;43435;46.186;9.024;2023-07-28T11:40:16;98311.53;;;27.15;42.56
57610;BME280;43435;46.186;9.024;2023-07-28T11:42:45;98308.63;;;27.11;43.91
57610;BME280;43435;46.186;9.024;2023-07-28T11:45:13;98305.44;;;27.27;41.16
57610;BME280;43435;46.186;9.024;2023-07-28T11:47:38;98304.19;;;27.33;42.34
57610;BME280;43435;46.186;9.024;2023-07-28T11:50:04;98302.38;;;27.28;42.49
57610;BME280;43435;46.186;9.024;2023-07-28T11:52:34;98301.13;;;27.34;41.98
57610;BME280;43435;46.186;9.024;2023-07-28T11:55:05;98297.25;;;27.35;41.68
57610;BME280;43435;46.186;9.024;2023-07-28T11:57:31;98291.00;;;27.43;40.03
57610;BME280;43435;46.186;9.024;2023-07-28T11:59:58;98286.81;;;27.46;40.89
57610;BME280;43435;46.186;9.024;2023-07-28T12:02:27;98286.84;;;27.55;40.70
57610;BME280;43435;46.186;9.024;2023-07-28T12:04:54;98283.44;;;27.58;41.26
57610;BME280;43435;46.186;9.024;2023-07-28T12:07:27;98281.19;;;27.51;43.17
57610;BME280;43435;46.186;9.024;2023-07-28T12:09:53;98287.81;;;27.59;40.80
57610;BME280;43435;46.186;9.024;2023-07-28T12:12:26;98286.16;;;27.58;40.09
57610;BME280;43435;46.186;9.024;2023-07-28T12:14:54;98288.44;;;27.56;41.64
57610;BME280;43435;46.186;9.024;2023-07-28T12:17:22;98299.38;;;27.64;40.69
57610;BME280;43435;46.186;9.024;2023-07-28T12:20:07;98288.09;;;27.57;39.95
57610;BME280;43435;46.186;9.024;2023-07-28T12:22:33;98302.47;;;27.63;40.21
57610;BME280;43435;46.186;9.024;2023-07-28T12:24:58;98311.13;;;27.48;41.69
57610;BME280;43435;46.186;9.024;2023-07-28T12:27:23;98314.22;;;27.55;41.86
57610;BME280;43435;46.186;9.024;2023-07-28T12:29:50;98319.53;;;27.60;40.90
57610;BME280;43435;46.186;9.024;2023-07-28T12:32:16;98318.56;;;27.56;41.02
57610;BME280;43435;46.186;9.024;2023-07-28T12:34:41;98322.09;;;27.48;41.26
57610;BME280;43435;46.186;9.024;2023-07-28T12:37:07;98326.59;;;27.43;42.14
57610;BME280;43435;46.186;9.024;2023-07-28T12:39:35;98326.59;;;27.43;39.99
57610;BME280;43435;46.186;9.024;2023-07-28T12:42:00;98313.38;;;27.45;40.59
57610;BME280;43435;46.186;9.024;2023-07-28T12:44:26;98312.06;;;27.43;41.61
57610;BME280;43435;46.186;9.024;2023-07-28T12:46:52;98306.63;;;27.60;40.85
57610;BME280;43435;46.186;9.024;2023-07-28T12:49:17;98292.63;;;27.70;41.93
57610;BME280;43435;46.186;9.024;2023-07-28T12:51:44;98271.56;;;27.88;42.20
57610;BME280;43435;46.186;9.024;2023-07-28T12:54:10;98258.19;;;27.96;40.65
57610;BME280;43435;46.186;9.024;2023-07-28T12:56:35;98249.16;;;27.86;42.48
57610;BME280;43435;46.186;9.024;2023-07-28T12:59:00;98253.38;;;27.84;40.62
57610;BME280;43435;46.186;9.024;2023-07-28T13:01:25;98262.38;;;27.84;40.71
57610;BME280;43435;46.186;9.024;2023-07-28T13:03:51;98264.25;;;27.58;42.54
57610;BME280;43435;46.186;9.024;2023-07-28T13:06:16;98253.16;;;27.72;42.77
57610;BME280;43435;46.186;9.024;2023-07-28T13:08:41;98250.91;;;28.08;40.43
57610;BME280;43435;46.186;9.024;2023-07-28T13:11:06;98247.03;;;28.18;40.32
57610;BME280;43435;46.186;9.024;2023-07-28T13:13:32;98243.34;;;28.14;41.61
57610;BME280;43435;46.186;9.024;2023-07-28T13:15:58;98261.00;;;28.42;40.51
57610;BME280;43435;46.186;9.024;2023-07-28T13:18:24;98246.34;;;28.38;40.04
57610;BME280;43435;46.186;9.024;2023-07-28T13:20:50;98249.53;;;28.58;40.28
57610;BME280;43435;46.186;9.024;2023-07-28T13:23:15;98261.09;;;28.72;40.50
57610;BME280;43435;46.186;9.024;2023-07-28T13:25:41;98269.66;;;28.71;39.97
57610;BME280;43435;46.186;9.024;2023-07-28T13:28:06;98276.06;;;28.83;39.41
57610;BME280;43435;46.186;9.024;2023-07-28T13:30:31;98262.16;;;28.88;38.83
57610;BME280;43435;46.186;9.024;2023-07-28T13:32:56;98259.91;;;28.82;39.80
57610;BME280;43435;46.186;9.024;2023-07-28T13:35:23;98256.19;;;28.86;39.52
57610;BME280;43435;46.186;9.024;2023-07-28T13:37:49;98257.00;;;28.87;38.77
57610;BME280;43435;46.186;9.024;2023-07-28T13:40:15;98250.19;;;28.55;40.81
57610;BME280;43435;46.186;9.024;2023-07-28T13:42:40;98250.19;;;29.02;39.09
57610;BME280;43435;46.186;9.024;2023-07-28T13:45:05;98245.78;;;29.09;38.73
57610;BME280;43435;46.186;9.024;2023-07-28T13:47:31;98245.72;;;29.18;39.33
57610;BME280;43435;46.186;9.024;2023-07-28T13:49:56;98244.66;;;29.31;39.29
57610;BME280;43435;46.186;9.024;2023-07-28T13:52:21;98258.84;;;29.33;38.83
57610;BME280;43435;46.186;9.024;2023-07-28T13:54:47;98254.03;;;29.30;38.25
57610;BME280;43435;46.186;9.024;2023-07-28T13:57:13;98262.19;;;29.18;39.49
57610;BME280;43435;46.186;9.024;2023-07-28T13:59:39;98258.97;;;29.16;39.45
57610;BME280;43435;46.186;9.024;2023-07-28T14:02:05;98246.56;;;29.10;39.04
57610;BME280;43435;46.186;9.024;2023-07-28T14:04:30;98238.19;;;29.06;38.56
57610;BME280;43435;46.186;9.024;2023-07-28T14:06:56;98233.94;;;29.18;38.12
57610;BME280;43435;46.186;9.024;2023-07-28T14:09:21;98248.94;;;29.20;38.22
57610;BME280;43435;46.186;9.024;2023-07-28T14:11:46;98247.38;;;29.10;37.56
57610;BME280;43435;46.186;9.024;2023-07-28T14:14:11;98257.59;;;29.01;38.37
57610;BME280;43435;46.186;9.024;2023-07-28T14:16:37;98240.50;;;28.96;39.47
57610;BME280;43435;46.186;9.024;2023-07-28T14:19:02;98228.69;;;29.04;39.11
57610;BME280;43435;46.186;9.024;2023-07-28T14:21:28;98224.97;;;29.29;38.20
57610;BME280;43435;46.186;9.024;2023-07-28T14:23:53;98220.97;;;29.48;38.85
57610;BME280;43435;46.186;9.024;2023-07-28T14:26:18;98218.56;;;29.46;37.74
57610;BME280;43435;46.186;9.024;2023-07-28T14:28:43;98217.31;;;29.14;38.51
57610;BME280;43435;46.186;9.024;2023-07-28T14:31:09;98219.72;;;29.16;38.44
57610;BME280;43435;46.186;9.024;2023-07-28T14:33:34;98224.63;;;29.10;38.37
57610;BME280;43435;46.186;9.024;2023-07-28T14:35:59;98213.91;;;28.87;39.10
57610;BME280;43435;46.186;9.024;2023-07-28T14:38:24;98218.31;;;28.71;40.04
57610;BME280;43435;46.186;9.024;2023-07-28T14:40:50;98220.56;;;28.78;40.30
57610;BME280;43435;46.186;9.024;2023-07-28T14:43:17;98215.00;;;28.86;39.98
57610;BME280;43435;46.186;9.024;2023-07-28T14:45:42;98223.94;;;28.83;39.77
57610;BME280;43435;46.186;9.024;2023-07-28T14:48:08;98216.34;;;28.80;40.45
57610;BME280;43435;46.186;9.024;2023-07-28T14:50:33;98212.75;;;28.88;40.21
57610;BME280;43435;46.186;9.024;2023-07-28T14:52:58;98214.84;;;28.92;40.16
57610;BME280;43435;46.186;9.024;2023-07-28T14:55:24;98213.22;;;28.99;39.50
57610;BME280;43435;46.186;9.024;2023-07-28T14:57:50;98215.50;;;28.88;41.20
57610;BME280;43435;46.186;9.024;2023-07-28T15:00:15;98214.56;;;28.84;40.60
57610;BME280;43435;46.186;9.024;2023-07-28T15:02:40;98210.31;;;28.96;39.88
57610;BME280;43435;46.186;9.024;2023-07-28T15:05:06;98207.47;;;28.83;40.81
57610;BME280;43435;46.186;9.024;2023-07-28T15:07:31;98221.22;;;29.13;39.72
57610;BME280;43435;46.186;9.024;2023-07-28T15:09:56;98213.91;;;29.17;39.26
57610;BME280;43435;46.186;9.024;2023-07-28T15:12:21;98211.19;;;29.17;39.85
57610;BME280;43435;46.186;9.024;2023-07-28T15:14:47;98219.81;;;29.28;39.69
57610;BME280;43435;46.186;9.024;2023-07-28T15:17:12;98218.81;;;29.32;39.23
57610;BME280;43435;46.186;9.024;2023-07-28T15:19:37;98216.97;;;29.66;39.11
57610;BME280;43435;46.186;9.024;2023-07-28T15:22:03;98221.47;;;30.04;38.63
57610;BME280;43435;46.186;9.024;2023-07-28T15:24:29;98221.84;;;30.15;38.30
57610;BME280;43435;46.186;9.024;2023-07-28T15:26:54;98214.47;;;30.27;38.00
57610;BME280;43435;46.186;9.024;2023-07-28T15:29:19;98219.38;;;30.34;37.14
57610;BME280;43435;46.186;9.024;2023-07-28T15:31:45;98209.78;;;30.52;36.78
57610;BME280;43435;46.186;9.024;2023-07-28T15:34:10;98227.81;;;30.62;36.69
57610;BME280;43435;46.186;9.024;2023-07-28T15:36:35;98214.38;;;30.48;36.14
57610;BME280;43435;46.186;9.024;2023-07-28T15:39:01;98206.00;;;30.45;37.24
57610;BME280;43435;46.186;9.024;2023-07-28T15:41:26;98217.00;;;30.45;37.72
57610;BME280;43435;46.186;9.024;2023-07-28T15:43:51;98223.91;;;30.51;36.86
57610;BME280;43435;46.186;9.024;2023-07-28T15:46:17;98215.63;;;30.39;37.38
57610;BME280;43435;46.186;9.024;2023-07-28T15:48:42;98211.78;;;30.76;36.47
57610;BME280;43435;46.186;9.024;2023-07-28T15:51:09;98212.25;;;30.78;36.47
57610;BME280;43435;46.186;9.024;2023-07-28T15:53:34;98211.78;;;30.89;36.66
57610;BME280;43435;46.186;9.024;2023-07-28T15:55:59;98213.94;;;30.71;36.88
57610;BME280;43435;46.186;9.024;2023-07-28T15:58:25;98208.97;;;30.52;36.92
57610;BME280;43435;46.186;9.024;2023-07-28T16:00:50;98207.63;;;30.58;36.33
57610;BME280;43435;46.186;9.024;2023-07-28T16:03:15;98211.28;;;30.50;36.70
57610;BME280;43435;46.186;9.024;2023-07-28T16:05:41;98214.13;;;30.41;37.23
57610;BME280;43435;46.186;9.024;2023-07-28T16:08:06;98210.56;;;30.28;37.60
57610;BME280;43435;46.186;9.024;2023-07-28T16:10:31;98215.75;;;30.42;37.22
57610;BME280;43435;46.186;9.024;2023-07-28T16:12:57;98213.13;;;30.46;36.88
57610;BME280;43435;46.186;9.024;2023-07-28T16:15:23;98220.53;;;30.78;36.45
57610;BME280;43435;46.186;9.024;2023-07-28T16:17:49;98220.84;;;30.77;36.80
57610;BME280;43435;46.186;9.024;2023-07-28T16:20:14;98221.66;;;30.77;36.57
57610;BME280;43435;46.186;9.024;2023-07-28T16:22:39;98226.09;;;30.70;36.64
57610;BME280;43435;46.186;9.024;2023-07-28T16:25:05;98212.78;;;30.47;37.16
57610;BME280;43435;46.186;9.024;2023-07-28T16:27:30;98221.63;;;30.53;36.84
57610;BME280;43435;46.186;9.024;2023-07-28T16:29:55;98216.53;;;29.97;38.57
57610;BME280;43435;46.186;9.024;2023-07-28T16:32:21;98210.13;;;29.72;38.83
57610;BME280;43435;46.186;9.024;2023-07-28T16:34:46;98212.13;;;29.63;38.98
57610;BME280;43435;46.186;9.024;2023-07-28T16:37:11;98214.00;;;29.50;39.55
57610;BME280;43435;46.186;9.024;2023-07-28T16:39:37;98214.00;;;29.50;39.55
57610;BME280;43435;46.186;9.024;2023-07-28T16:42:02;98217.25;;;29.23;40.00
57610;BME280;43435;46.186;9.024;2023-07-28T16:44:28;98211.31;;;28.91;41.04
57610;BME280;43435;46.186;9.024;2023-07-28T16:46:54;98216.06;;;29.32;39.51
57610;BME280;43435;46.186;9.024;2023-07-28T16:49:19;98217.13;;;29.19;39.80
57610;BME280;43435;46.186;9.024;2023-07-28T16:51:44;98221.19;;;28.83;40.55
57610;BME280;43435;46.186;9.024;2023-07-28T16:54:10;98213.25;;;28.91;40.88
57610;BME280;43435;46.186;9.024;2023-07-28T16:56:35;98219.94;;;29.10;40.43
57610;BME280;43435;46.186;9.024;2023-07-28T16:59:00;98219.09;;;28.80;41.29
57610;BME280;43435;46.186;9.024;2023-07-28T17:01:26;98218.19;;;29.06;40.54
57610;BME280;43435;46.186;9.024;2023-07-28T17:03:51;98218.44;;;28.83;41.12
57610;BME280;43435;46.186;9.024;2023-07-28T17:06:17;98219.47;;;28.70;41.51
57610;BME280;43435;46.186;9.024;2023-07-28T17:08:42;98220.47;;;28.57;41.20
57610;BME280;43435;46.186;9.024;2023-07-28T17:11:07;98234.88;;;28.54;42.15
57610;BME280;43435;46.186;9.024;2023-07-28T17:13:32;98234.09;;;28.45;41.74
57610;BME280;43435;46.186;9.024;2023-07-28T17:15:58;98234.78;;;27.98;43.63
57610;BME280;43435;46.186;9.024;2023-07-28T17:18:23;98236.25;;;28.04;44.54
57610;BME280;43435;46.186;9.024;2023-07-28T17:20:48;98237.88;;;27.97;44.10
57610;BME280;43435;46.186;9.024;2023-07-28T17:23:14;98241.09;;;27.90;44.00
57610;BME280;43435;46.186;9.024;2023-07-28T17:25:39;98238.97;;;27.61;45.31
57610;BME280;43435;46.186;9.024;2023-07-28T17:28:04;98245.25;;;27.61;44.26
57610;BME280;43435;46.186;9.024;2023-07-28T17:30:29;98247.53;;;27.59;44.92
57610;BME280;43435;46.186;9.024;2023-07-28T17:32:55;98249.44;;;27.50;44.94
57610;BME280;43435;46.186;9.024;2023-07-28T17:35:20;98242.81;;;27.25;46.14
57610;BME280;43435;46.186;9.024;2023-07-28T17:37:45;98242.66;;;27.21;46.18
57610;BME280;43435;46.186;9.024;2023-07-28T17:40:12;98236.50;;;27.16;46.00
